createdAt,value
2018-12-19T00:02:12.487Z,54.34
2018-12-19T00:04:40.771Z,54.13
2018-12-19T00:07:08.486Z,54.37
2018-12-19T00:09:36.256Z,54.52
2018-12-19T00:12:04.510Z,54.04
2018-12-19T00:14:32.141Z,54.25
2018-12-19T00:17:00.566Z,54.23
2018-12-19T00:19:28.503Z,54.30
2018-12-19T00:21:56.425Z,54.32
2018-12-19T00:24:24.906Z,54.30
2018-12-19T00:26:52.559Z,54.30
2018-12-19T00:29:20.188Z,54.29
2018-12-19T00:31:47.806Z,54.20
2018-12-19T00:34:15.441Z,54.30
2018-12-19T00:36:43.135Z,54.36
2018-12-19T00:39:10.832Z,54.35
2018-12-19T00:44:28.562Z,54.35
2018-12-19T00:46:56.144Z,54.47
2018-12-19T00:49:23.768Z,54.62
2018-12-19T00:51:51.422Z,54.37
2018-12-19T00:54:19.051Z,54.57
2018-12-19T00:56:46.688Z,54.64
2018-12-19T00:59:14.285Z,54.54
2018-12-19T01:01:41.939Z,54.15
2018-12-19T01:04:29.501Z,54.33
2018-12-19T01:06:57.975Z,54.55
2018-12-19T01:51:09.788Z,55.36
2018-12-19T01:53:37.517Z,55.29
2018-12-19T01:56:05.243Z,55.55
2018-12-19T01:58:32.873Z,56.55
2018-12-19T02:01:00.469Z,56.36
2018-12-19T02:03:28.534Z,56.64
2018-12-19T02:05:57.212Z,56.55
2018-12-19T02:08:24.848Z,56.70
2018-12-19T02:10:52.580Z,56.66
2018-12-19T02:13:20.196Z,56.52
2018-12-19T02:15:47.821Z,56.65
2018-12-19T02:18:15.423Z,56.25
2018-12-19T02:20:43.214Z,56.34
2018-12-19T02:23:10.849Z,56.36
2018-12-19T02:25:38.447Z,56.27
2018-12-19T02:28:06.075Z,55.97
2018-12-19T02:30:33.692Z,55.99
2018-12-19T02:33:01.504Z,55.94
2018-12-19T02:35:29.116Z,56.43
2018-12-19T02:37:56.698Z,56.63
2018-12-19T02:40:24.483Z,56.48
2018-12-19T02:42:52.071Z,56.67
2018-12-19T02:45:19.655Z,56.45
2018-12-19T02:47:47.282Z,56.63
2018-12-19T02:50:14.888Z,56.49
2018-12-19T02:52:42.513Z,56.41
2018-12-19T02:55:10.129Z,56.57
2018-12-19T02:57:37.746Z,56.49
2018-12-19T03:00:05.777Z,57.33
2018-12-19T03:02:33.431Z,57.22
2018-12-19T03:05:01.042Z,57.17
2018-12-19T03:07:28.664Z,57.25
2018-12-19T03:09:56.278Z,57.18
2018-12-19T03:12:23.892Z,57.12
2018-12-19T03:14:51.515Z,57.60
2018-12-19T03:17:19.098Z,57.48
2018-12-19T03:19:46.737Z,57.43
2018-12-19T03:22:14.331Z,57.51
2018-12-19T03:24:41.946Z,57.58
2018-12-19T03:27:09.539Z,57.76
2018-12-19T03:29:37.298Z,57.55
2018-12-19T03:32:04.972Z,57.83
2018-12-19T03:34:32.614Z,57.89
2018-12-19T03:37:00.244Z,57.54
2018-12-19T03:39:27.972Z,57.38
2018-12-19T03:41:55.582Z,57.36
2018-12-19T03:44:23.235Z,57.29
2018-12-19T03:46:50.910Z,57.19
2018-12-19T03:49:18.601Z,57.18
2018-12-19T03:51:46.521Z,57.36
2018-12-19T03:54:14.155Z,57.17
2018-12-19T03:56:42.299Z,57.47
2018-12-19T03:59:09.925Z,57.87
2018-12-19T04:01:37.563Z,57.45
2018-12-19T04:04:05.320Z,57.43
2018-12-19T04:06:32.955Z,57.56
2018-12-19T04:09:03.839Z,57.03
2018-12-19T04:11:31.566Z,57.29
2018-12-19T04:13:59.549Z,57.13
2018-12-19T04:16:27.266Z,56.88
2018-12-19T04:18:54.961Z,56.95
2018-12-19T04:21:22.626Z,56.75
2018-12-19T04:23:50.339Z,57.09
2018-12-19T04:26:17.989Z,57.42
2018-12-19T04:28:45.631Z,57.78
2018-12-19T04:31:13.237Z,57.70
2018-12-19T04:33:40.851Z,57.62
2018-12-19T04:36:08.595Z,57.24
2018-12-19T04:38:36.503Z,57.25
2018-12-19T04:41:04.127Z,57.26
2018-12-19T04:43:31.841Z,57.20
2018-12-19T04:45:59.512Z,57.19
2018-12-19T04:48:27.093Z,56.79
2018-12-19T04:50:54.705Z,56.64
2018-12-19T04:53:22.284Z,56.22
2018-12-19T04:55:49.965Z,56.31
2018-12-19T04:58:17.633Z,56.03
2018-12-19T05:00:45.360Z,56.39
2018-12-19T05:03:14.522Z,56.21
2018-12-19T05:05:42.546Z,55.80
2018-12-19T05:08:10.211Z,55.99
2018-12-19T05:10:38.169Z,55.94
2018-12-19T05:13:06.012Z,55.83
2018-12-19T05:15:33.805Z,55.81
2018-12-19T05:18:01.437Z,56.02
2018-12-19T05:20:29.112Z,55.96
2018-12-19T05:22:56.916Z,56.10
2018-12-19T05:25:24.577Z,56.90
2018-12-19T05:27:52.305Z,56.99
2018-12-19T05:30:19.930Z,56.85
2018-12-19T05:32:47.590Z,56.79
2018-12-19T05:35:15.198Z,56.80
2018-12-19T05:37:43.204Z,56.71
2018-12-19T05:40:10.788Z,57.22
2018-12-19T05:42:38.451Z,57.02
2018-12-19T05:45:08.263Z,56.99
2018-12-19T05:47:36.248Z,57.39
2018-12-19T05:50:12.182Z,56.65
2018-12-19T05:52:40.015Z,56.86
2018-12-19T05:55:07.640Z,56.50
2018-12-19T05:57:36.226Z,55.84
2018-12-19T06:00:06.819Z,55.61
2018-12-19T06:02:36.113Z,55.50
2018-12-19T06:05:05.498Z,55.28
2018-12-19T06:07:34.603Z,55.08
2018-12-19T06:10:03.771Z,55.31
2018-12-19T06:12:32.926Z,54.84
2018-12-19T06:15:02.050Z,54.86
2018-12-19T06:17:31.104Z,54.90
2018-12-19T06:20:00.187Z,54.76
2018-12-19T06:22:29.207Z,54.64
2018-12-19T06:24:58.304Z,54.91
2018-12-19T06:30:22.487Z,54.56
2018-12-19T06:36:03.048Z,55.16
2018-12-19T06:38:30.595Z,54.77
2018-12-19T06:40:58.172Z,53.99
2018-12-19T06:43:25.905Z,54.95
2018-12-19T06:45:53.476Z,55.74
2018-12-19T06:48:21.019Z,55.82
2018-12-19T06:50:48.803Z,55.95
2018-12-19T06:53:16.390Z,55.67
2018-12-19T06:55:43.999Z,55.71
2018-12-19T06:58:11.612Z,55.61
2018-12-19T07:00:39.190Z,55.70
2018-12-19T07:03:06.847Z,55.57
2018-12-19T07:05:34.392Z,55.77
2018-12-19T07:08:01.966Z,55.35
2018-12-19T07:10:29.671Z,55.38
2018-12-19T07:12:57.432Z,55.30
2018-12-19T07:15:25.037Z,55.10
2018-12-19T07:17:52.684Z,55.18
2018-12-19T07:20:20.388Z,55.07
2018-12-19T07:22:47.969Z,55.33
2018-12-19T07:25:15.534Z,55.57
2018-12-19T07:27:43.157Z,55.14
2018-12-19T07:30:10.764Z,54.74
2018-12-19T07:32:38.447Z,54.68
2018-12-19T07:35:05.970Z,54.50
2018-12-19T07:37:33.720Z,54.48
2018-12-19T07:40:01.288Z,54.58
2018-12-19T07:42:28.856Z,54.46
2018-12-19T07:44:56.456Z,54.55
2018-12-19T07:47:24.046Z,54.40
2018-12-19T07:49:51.639Z,54.44
2018-12-19T07:52:19.246Z,54.30
2018-12-19T07:54:46.896Z,54.41
2018-12-19T07:57:14.546Z,54.34
2018-12-19T07:59:42.141Z,54.34
2018-12-19T08:02:09.709Z,54.28
2018-12-19T08:04:37.460Z,54.32
2018-12-19T08:07:05.070Z,54.01
2018-12-19T08:09:32.681Z,54.16
2018-12-19T08:12:00.311Z,54.01
2018-12-19T08:14:27.908Z,53.80
2018-12-19T08:16:55.472Z,53.93
2018-12-19T08:19:23.077Z,53.75
2018-12-19T08:21:50.682Z,53.79
2018-12-19T08:24:18.258Z,53.40
2018-12-19T08:26:45.903Z,53.57
2018-12-19T08:29:13.455Z,53.75
2018-12-19T08:31:41.112Z,53.47
2018-12-19T08:34:08.825Z,53.67
2018-12-19T08:36:36.423Z,53.54
2018-12-19T08:39:05.719Z,53.70
2018-12-19T08:41:33.322Z,53.39
2018-12-19T08:44:00.906Z,53.57
2018-12-19T08:46:28.518Z,53.47
2018-12-19T08:48:56.082Z,53.32
2018-12-19T08:51:23.646Z,53.20
2018-12-19T08:53:51.297Z,53.41
2018-12-19T08:56:18.873Z,53.17
2018-12-19T08:58:46.492Z,53.18
2018-12-19T09:01:14.048Z,53.39
2018-12-19T09:03:41.608Z,53.22
2018-12-19T09:06:09.220Z,53.27
2018-12-19T09:08:36.883Z,53.24
2018-12-19T09:11:05.802Z,53.15
2018-12-19T09:13:33.818Z,52.98
2018-12-19T09:16:01.362Z,53.11
2018-12-19T09:18:28.936Z,53.08
2018-12-19T09:20:56.563Z,52.97
2018-12-19T09:23:24.122Z,53.07
2018-12-19T09:25:52.940Z,53.08
2018-12-19T09:28:20.644Z,52.83
2018-12-19T09:30:48.391Z,52.85
2018-12-19T09:33:15.972Z,52.81
2018-12-19T09:35:43.694Z,52.54
2018-12-19T09:38:11.311Z,52.67
2018-12-19T09:40:38.874Z,52.57
2018-12-19T09:43:06.492Z,52.47
2018-12-19T09:45:34.076Z,52.78
2018-12-19T09:48:01.669Z,52.52
2018-12-19T09:50:29.254Z,52.58
2018-12-19T09:52:56.880Z,52.61
2018-12-19T09:55:24.439Z,52.57
2018-12-19T09:57:52.061Z,52.61
2018-12-19T10:00:25.292Z,52.44
2018-12-19T10:02:52.940Z,52.65
2018-12-19T10:05:20.584Z,52.51
2018-12-19T10:07:48.203Z,52.53
2018-12-19T10:10:15.769Z,52.61
2018-12-19T10:12:43.481Z,52.35
2018-12-19T10:15:11.086Z,52.60
2018-12-19T10:17:41.082Z,52.74
2018-12-19T10:20:08.335Z,52.40
2018-12-19T10:22:35.905Z,52.49
2018-12-19T10:25:09.367Z,52.33
2018-12-19T10:27:36.964Z,52.63
2018-12-19T10:30:07.262Z,52.61
2018-12-19T10:32:39.375Z,52.52
2018-12-19T10:35:08.272Z,52.43
2018-12-19T10:37:35.851Z,52.28
2018-12-19T10:40:03.932Z,52.41
2018-12-19T10:42:31.552Z,52.56
2018-12-19T10:44:59.144Z,52.23
2018-12-19T10:47:26.684Z,52.34
2018-12-19T10:49:54.282Z,52.21
2018-12-19T10:52:21.896Z,52.31
2018-12-19T10:54:49.506Z,52.09
2018-12-19T10:57:17.110Z,52.32
2018-12-19T10:59:44.726Z,52.24
2018-12-19T11:02:12.369Z,52.08
2018-12-19T11:04:40.034Z,52.13
2018-12-19T11:07:07.804Z,52.22
2018-12-19T11:09:35.366Z,52.19
2018-12-19T11:12:02.984Z,52.03
2018-12-19T11:14:30.936Z,52.16
2018-12-19T11:16:58.841Z,52.33
2018-12-19T11:19:26.396Z,52.21
2018-12-19T11:21:54.085Z,52.14
2018-12-19T11:24:22.307Z,51.99
2018-12-19T11:26:50.159Z,52.38
2018-12-19T11:29:17.802Z,51.97
2018-12-19T11:31:45.411Z,52.12
2018-12-19T11:34:13.101Z,52.06
2018-12-19T11:36:40.684Z,51.92
2018-12-19T11:39:08.372Z,51.88
2018-12-19T11:41:38.953Z,51.92
2018-12-19T11:44:05.659Z,51.90
2018-12-19T11:46:33.257Z,52.03
2018-12-19T11:49:00.909Z,52.00
2018-12-19T11:51:28.614Z,51.94
2018-12-19T11:53:56.233Z,51.76
2018-12-19T11:56:23.830Z,51.80
2018-12-19T11:58:51.429Z,51.89
2018-12-19T12:01:19.054Z,51.71
2018-12-19T12:03:46.635Z,51.87
2018-12-19T12:06:14.255Z,51.55
2018-12-19T12:08:41.857Z,51.68
2018-12-19T12:11:09.439Z,51.64
2018-12-19T12:13:37.105Z,51.92
2018-12-19T12:16:04.696Z,51.72
2018-12-19T12:18:32.456Z,51.70
2018-12-19T12:21:00.213Z,51.84
2018-12-19T12:23:27.847Z,51.61
2018-12-19T12:25:55.511Z,51.75
2018-12-19T12:28:23.169Z,51.95
2018-12-19T12:30:50.984Z,52.17
2018-12-19T12:33:18.612Z,52.19
2018-12-19T12:35:46.378Z,52.36
2018-12-19T12:38:14.771Z,52.26
2018-12-19T12:40:43.426Z,52.53
2018-12-19T12:43:11.026Z,52.59
2018-12-19T12:45:38.688Z,52.54
2018-12-19T12:48:07.186Z,52.71
2018-12-19T12:50:35.250Z,52.47
2018-12-19T12:53:02.880Z,52.44
2018-12-19T12:55:30.496Z,52.43
2018-12-19T12:57:58.154Z,52.31
2018-12-19T13:00:25.737Z,52.34
2018-12-19T13:02:53.377Z,52.14
2018-12-19T13:05:23.491Z,52.20
2018-12-19T13:07:51.238Z,52.35
2018-12-19T13:10:18.864Z,52.38
2018-12-19T13:12:46.558Z,52.47
2018-12-19T13:15:18.643Z,52.37
2018-12-19T13:17:46.442Z,52.38
2018-12-19T13:20:14.045Z,52.07
2018-12-19T13:22:41.693Z,52.26
2018-12-19T13:25:09.273Z,52.09
2018-12-19T13:27:36.931Z,52.28
2018-12-19T13:30:05.670Z,52.70
2018-12-19T13:32:33.263Z,52.34
2018-12-19T13:35:00.866Z,52.31
2018-12-19T13:37:28.472Z,52.22
2018-12-19T13:39:56.062Z,52.25
2018-12-19T13:42:23.697Z,52.36
2018-12-19T13:44:51.356Z,51.98
2018-12-19T13:47:18.933Z,52.22
2018-12-19T13:49:46.543Z,52.07
2018-12-19T13:52:14.150Z,51.99
2018-12-19T13:54:41.852Z,51.82
2018-12-19T13:57:09.443Z,51.96
2018-12-19T13:59:37.039Z,51.99
2018-12-19T14:02:04.678Z,51.95
2018-12-19T14:04:32.735Z,52.07
2018-12-19T14:07:00.885Z,51.93
2018-12-19T14:09:28.459Z,52.06
2018-12-19T14:11:56.060Z,51.96
2018-12-19T14:14:23.627Z,51.88
2018-12-19T14:16:51.322Z,51.97
2018-12-19T14:19:18.882Z,51.87
2018-12-19T14:21:46.457Z,51.86
2018-12-19T14:24:14.053Z,51.47
2018-12-19T14:26:41.629Z,51.64
2018-12-19T14:29:09.255Z,51.69
2018-12-19T14:31:36.814Z,51.56
2018-12-19T14:34:04.501Z,51.48
2018-12-19T14:36:32.135Z,51.59
2018-12-19T14:38:59.766Z,51.65
2018-12-19T14:41:27.448Z,51.63
2018-12-19T14:43:55.024Z,51.53
2018-12-19T14:46:22.699Z,51.37
2018-12-19T14:48:50.319Z,51.41
2018-12-19T14:51:17.945Z,51.52
2018-12-19T14:53:45.601Z,51.38
2018-12-19T14:56:13.263Z,51.66
2018-12-19T14:58:40.852Z,51.59
2018-12-19T15:01:08.681Z,51.43
2018-12-19T15:03:36.393Z,51.39
2018-12-19T15:06:04.583Z,51.32
2018-12-19T15:08:32.280Z,51.03
2018-12-19T15:10:59.896Z,51.45
2018-12-19T15:13:27.553Z,51.56
2018-12-19T15:16:01.248Z,51.82
2018-12-19T15:18:28.916Z,51.36
2018-12-19T15:20:56.570Z,51.59
2018-12-19T15:23:24.198Z,51.54
2018-12-19T15:25:51.817Z,51.46
2018-12-19T15:28:19.423Z,51.41
2018-12-19T15:30:47.127Z,51.43
2018-12-19T15:33:15.481Z,51.11
2018-12-19T15:35:45.446Z,51.52
2018-12-19T15:38:14.267Z,51.46
2018-12-19T15:40:41.885Z,51.50
2018-12-19T15:43:09.485Z,51.48
2018-12-19T15:45:37.122Z,51.06
2018-12-19T15:48:04.722Z,51.34
2018-12-19T15:50:32.407Z,51.39
2018-12-19T15:53:00.110Z,51.55
2018-12-19T15:55:27.779Z,51.40
2018-12-19T15:57:55.416Z,51.31
2018-12-19T16:00:23.245Z,51.14
2018-12-19T16:02:50.869Z,51.49
2018-12-19T16:05:18.494Z,51.21
2018-12-19T16:07:46.160Z,51.23
2018-12-19T16:10:13.759Z,51.34
2018-12-19T16:12:41.441Z,51.29
2018-12-19T16:15:09.083Z,51.14
2018-12-19T16:17:36.762Z,51.30
2018-12-19T16:20:05.849Z,51.29
2018-12-19T16:22:33.520Z,51.35
2018-12-19T16:25:01.132Z,51.21
2018-12-19T16:27:28.679Z,51.12
2018-12-19T16:29:56.347Z,51.03
2018-12-19T16:32:23.910Z,51.01
2018-12-19T16:34:51.590Z,51.16
2018-12-19T16:37:19.154Z,51.00
2018-12-19T16:39:46.721Z,51.06
2018-12-19T16:42:14.335Z,51.16
2018-12-19T16:44:41.977Z,51.22
2018-12-19T16:47:09.645Z,51.18
2018-12-19T16:49:37.290Z,51.11
2018-12-19T16:52:04.963Z,50.81
2018-12-19T16:54:32.559Z,51.04
2018-12-19T16:57:00.186Z,50.92
2018-12-19T16:59:27.870Z,50.97
2018-12-19T17:01:55.480Z,51.00
2018-12-19T17:04:23.233Z,50.96
2018-12-19T17:06:50.838Z,51.08
2018-12-19T17:09:18.450Z,50.97
2018-12-19T17:11:46.204Z,50.80
2018-12-19T17:14:13.924Z,50.97
2018-12-19T17:16:41.494Z,51.14
2018-12-19T17:19:09.140Z,51.09
2018-12-19T17:21:36.775Z,51.17
2018-12-19T17:24:04.432Z,51.09
2018-12-19T17:26:32.143Z,51.07
2018-12-19T17:28:59.737Z,51.07
2018-12-19T17:31:27.308Z,51.18
2018-12-19T17:33:54.925Z,51.12
2018-12-19T17:36:22.543Z,51.25
2018-12-19T17:38:50.122Z,51.17
2018-12-19T17:41:17.700Z,51.23
2018-12-19T17:43:45.263Z,51.21
2018-12-19T17:46:12.983Z,51.11
2018-12-19T17:48:40.596Z,51.04
2018-12-19T17:51:08.180Z,51.26
2018-12-19T17:53:35.800Z,51.10
2018-12-19T17:56:03.436Z,51.49
2018-12-19T17:58:31.047Z,51.17
2018-12-19T18:00:58.777Z,51.43
2018-12-19T18:03:26.426Z,51.19
2018-12-19T18:05:54.019Z,51.23
2018-12-19T18:08:21.628Z,51.16
2018-12-19T18:10:49.233Z,51.03
2018-12-19T18:13:16.856Z,51.35
2018-12-19T18:15:44.489Z,51.14
2018-12-19T18:18:12.115Z,51.17
2018-12-19T18:20:39.739Z,51.22
2018-12-19T18:23:07.355Z,51.36
2018-12-19T18:25:34.958Z,51.16
2018-12-19T18:28:02.527Z,51.29
2018-12-19T18:30:30.124Z,51.23
2018-12-19T18:32:57.745Z,50.92
2018-12-19T18:35:25.362Z,51.41
2018-12-19T18:37:52.947Z,50.97
2018-12-19T18:40:20.744Z,51.38
2018-12-19T18:42:48.360Z,51.24
2018-12-19T18:45:15.978Z,51.21
2018-12-19T18:47:43.574Z,51.07
2018-12-19T18:50:11.183Z,51.25
2018-12-19T18:52:38.855Z,51.24
2018-12-19T18:55:06.993Z,51.21
2018-12-19T18:57:34.608Z,51.15
2018-12-19T19:00:02.396Z,51.26
2018-12-19T19:02:30.034Z,51.19
2018-12-19T19:04:57.650Z,51.15
2018-12-19T19:07:25.315Z,51.07
2018-12-19T19:09:52.916Z,51.04
2018-12-19T19:12:20.538Z,51.13
2018-12-19T19:14:48.116Z,51.14
2018-12-19T19:17:15.685Z,51.19
2018-12-19T19:19:43.260Z,51.29
2018-12-19T19:22:10.902Z,51.56
2018-12-19T19:24:38.545Z,51.69
2018-12-19T19:27:09.469Z,52.27
2018-12-19T19:29:37.997Z,51.82
2018-12-19T19:32:05.661Z,52.30
2018-12-19T19:34:33.279Z,52.51
2018-12-19T19:37:01.005Z,52.13
2018-12-19T19:39:28.826Z,52.24
2018-12-19T19:41:56.513Z,52.42
2018-12-19T19:44:24.204Z,52.13
2018-12-19T19:46:51.901Z,52.42
2018-12-19T19:49:19.479Z,52.55
2018-12-19T19:51:47.025Z,52.03
2018-12-19T19:54:14.611Z,52.77
2018-12-19T19:56:42.205Z,52.75
2018-12-19T19:59:09.993Z,52.13
2018-12-19T20:01:37.559Z,52.41
2018-12-19T20:04:05.200Z,52.40
2018-12-19T20:06:32.992Z,52.85
2018-12-19T20:09:00.837Z,52.72
2018-12-19T20:11:28.486Z,52.89
2018-12-19T20:13:56.243Z,52.54
2018-12-19T20:16:23.884Z,52.75
2018-12-19T20:18:51.478Z,52.80
2018-12-19T20:21:19.120Z,52.62
2018-12-19T20:23:46.720Z,52.77
2018-12-19T20:26:14.361Z,52.67
2018-12-19T20:28:42.074Z,52.76
2018-12-19T20:31:09.653Z,52.61
2018-12-19T20:33:37.271Z,52.46
2018-12-19T20:36:04.901Z,52.90
2018-12-19T20:38:32.578Z,52.95
2018-12-19T20:41:00.152Z,52.78
2018-12-19T20:43:27.768Z,53.26
2018-12-19T20:45:55.399Z,52.87
2018-12-19T20:48:22.993Z,53.17
2018-12-19T20:50:50.588Z,53.09
2018-12-19T20:53:18.207Z,53.31
2018-12-19T20:55:45.791Z,53.02
2018-12-19T20:58:13.437Z,53.42
2018-12-19T21:00:41.050Z,53.15
2018-12-19T21:03:09.155Z,53.22
2018-12-19T21:05:36.739Z,53.51
2018-12-19T21:08:04.350Z,53.28
2018-12-19T21:10:32.111Z,53.43
2018-12-19T21:12:59.770Z,53.03
2018-12-19T21:15:27.323Z,52.80
2018-12-19T21:18:00.739Z,52.89
2018-12-19T21:20:28.385Z,52.93
2018-12-19T21:22:55.946Z,52.98
2018-12-19T21:25:23.551Z,53.06
2018-12-19T21:27:51.135Z,53.10
2018-12-19T21:30:18.768Z,53.15
2018-12-19T21:32:46.554Z,53.27
2018-12-19T21:35:14.143Z,53.19
2018-12-19T21:37:41.766Z,53.23
2018-12-19T21:40:09.362Z,53.49
2018-12-19T21:42:37.182Z,53.50
2018-12-19T21:45:06.001Z,53.58
2018-12-19T21:47:33.624Z,53.52
2018-12-19T21:50:01.430Z,53.44
2018-12-19T21:52:29.150Z,53.52
2018-12-19T21:54:56.912Z,53.65
2018-12-19T21:57:24.654Z,53.27
2018-12-19T21:59:52.358Z,53.63
2018-12-19T22:02:20.148Z,53.76
2018-12-19T22:04:47.873Z,53.72
2018-12-19T22:07:15.604Z,53.61
2018-12-19T22:09:43.313Z,53.98
2018-12-19T22:12:10.958Z,54.22
2018-12-19T22:14:38.511Z,54.07
2018-12-19T22:17:11.658Z,54.17
2018-12-19T22:19:39.467Z,53.79
2018-12-19T22:22:07.328Z,53.88
2018-12-19T22:24:34.945Z,53.99
2018-12-19T22:27:02.631Z,53.82
2018-12-19T22:29:30.420Z,53.86
2018-12-19T22:31:58.085Z,53.77
2018-12-19T22:34:25.826Z,53.93
2018-12-19T22:36:53.455Z,53.73
2018-12-19T22:39:21.018Z,54.11
2018-12-19T22:41:48.649Z,53.70
2018-12-19T22:44:16.303Z,53.85
2018-12-19T22:46:44.022Z,53.80
2018-12-19T22:49:11.757Z,54.11
2018-12-19T22:51:39.514Z,53.84
2018-12-19T22:54:07.315Z,53.99
2018-12-19T22:56:34.993Z,53.67
2018-12-19T22:59:02.701Z,53.92
2018-12-19T23:01:35.891Z,53.73
2018-12-19T23:04:06.980Z,53.92
2018-12-19T23:06:35.697Z,53.73
2018-12-19T23:09:05.360Z,54.00
2018-12-19T23:11:33.083Z,54.07
2018-12-19T23:14:00.705Z,53.80
2018-12-19T23:16:28.421Z,53.68
2018-12-19T23:18:56.081Z,54.19
2018-12-19T23:21:23.952Z,53.90
2018-12-19T23:23:51.734Z,53.95
2018-12-19T23:26:19.685Z,54.27
2018-12-19T23:28:47.328Z,54.08
2018-12-19T23:31:14.903Z,54.41
2018-12-19T23:33:42.563Z,54.43
2018-12-19T23:36:10.492Z,54.79
2018-12-19T23:38:38.156Z,54.45
2018-12-19T23:41:05.806Z,54.72
2018-12-19T23:43:33.508Z,54.83
2018-12-19T23:46:01.120Z,55.12
2018-12-19T23:48:29.054Z,55.19
2018-12-19T23:50:56.686Z,55.56
2018-12-19T23:53:24.276Z,55.30
2018-12-19T23:55:52.129Z,55.50
2018-12-19T23:58:19.766Z,55.89
